Ipiiba, Brazil
Current Conditions -  °F | °C
As of 11:00 PM on Wednesday 22 Oct 2014 (Local Time) from SBRJ Reporting Station
Broken Clouds Broken Clouds  
Wind Chill: 70°   Ceiling: 7000
Heat Index: 70°   Visibility: 6mi
Dew Point: 61°   Wind: 7mph
Humidity: 73%   Direction: 120°ESE
Pressure: 30.21"   Gusts: NA
Location:  22.87°S, 42.95°W
Report Text: SBRJ 230100Z 12006KT 9999 SCT030 BKN070 21/16 Q1023
Loading
Personal Weather Stations






























Interactive Weather Map
Tropical Storm Tracking
New forecast layout! Learn more

10-Day Weather Forecast

Advertisements
Track Severe Weather on mobile